Time;durP1;ratioP1;P1;durP2;ratioP2;P2;SDS_P1;SDS_P2;PMS_P1;PMS_P2;Temp;Humidity;BMP_temperature;BMP_pressure;BME280_temperature;BME280_humidity;BME280_pressure;Samples;Min_cycle;Max_cycle;Signal;HPM_P1;HPM_P2
2024/01/25 00:00:53;;;;;;;32.70;6.07;;;6.80;99.90;;;;;;4919805;29;20227;-75
2024/01/25 00:03:18;;;;;;;28.65;6.20;;;6.80;99.90;;;;;;4919233;29;20175;-75
2024/01/25 00:05:44;;;;;;;27.85;6.82;;;6.80;99.90;;;;;;4915447;29;20180;-75
2024/01/25 00:08:10;;;;;;;29.77;6.13;;;6.80;99.90;;;;;;4915734;29;20202;-75
2024/01/25 00:10:35;;;;;;;22.65;5.22;;;6.90;99.90;;;;;;4901005;29;20231;-75
2024/01/25 00:13:01;;;;;;;26.13;5.53;;;6.90;99.90;;;;;;4915327;29;20190;-74
2024/01/25 00:15:27;;;;;;;34.70;6.65;;;6.90;99.90;;;;;;4900749;29;20246;-73
2024/01/25 00:17:52;;;;;;;24.88;5.72;;;6.90;99.90;;;;;;4915316;29;20214;-73
2024/01/25 00:20:18;;;;;;;18.88;5.80;;;6.90;99.90;;;;;;4915370;29;20682;-73
2024/01/25 00:22:43;;;;;;;24.73;5.47;;;7.00;99.90;;;;;;4915751;29;20211;-73
2024/01/25 00:25:09;;;;;;;25.60;6.03;;;7.00;99.90;;;;;;4900904;29;20290;-73
2024/01/25 00:27:35;;;;;;;25.20;6.20;;;7.00;99.90;;;;;;4915522;29;20188;-73
2024/01/25 00:30:00;;;;;;;25.83;6.10;;;6.90;99.90;;;;;;4915336;29;20218;-74
2024/01/25 00:32:26;;;;;;;29.63;6.25;;;6.90;99.90;;;;;;4915437;29;20194;-75
2024/01/25 00:34:52;;;;;;;30.63;6.90;;;6.80;99.90;;;;;;4900415;29;20258;-74
2024/01/25 00:37:18;;;;;;;33.45;7.20;;;6.70;99.90;;;;;;4915039;29;20210;-73
2024/01/25 00:39:43;;;;;;;25.92;5.43;;;6.80;99.90;;;;;;4914763;29;20204;-73
2024/01/25 00:42:14;;;;;;;26.83;6.30;;;6.80;99.90;;;;;;4915100;29;20199;-73
2024/01/25 00:44:40;;;;;;;27.75;7.05;;;6.80;99.90;;;;;;4914921;29;20172;-73
2024/01/25 00:47:06;;;;;;;25.65;6.22;;;6.70;99.90;;;;;;4915078;29;20183;-73
2024/01/25 00:49:32;;;;;;;26.40;6.35;;;6.70;99.90;;;;;;4914760;29;20702;-73
2024/01/25 00:52:02;;;;;;;26.38;5.80;;;6.60;99.90;;;;;;4914054;29;20198;-73
2024/01/25 00:54:29;;;;;;;24.20;5.80;;;6.60;99.90;;;;;;4914802;29;20191;-73
2024/01/25 00:56:55;;;;;;;26.25;6.72;;;6.60;99.90;;;;;;4915696;29;20192;-73
2024/01/25 00:59:21;;;;;;;35.45;6.55;;;6.70;99.90;;;;;;4914606;29;20184;-73
2024/01/25 01:01:50;;;;;;;24.63;5.82;;;6.70;99.90;;;;;;4911854;29;20265;-74
2024/01/25 01:04:16;;;;;;;29.17;5.90;;;6.80;99.90;;;;;;4917899;29;20186;-74
2024/01/25 01:06:42;;;;;;;29.55;6.70;;;6.80;99.90;;;;;;4917849;29;20183;-74
2024/01/25 01:09:07;;;;;;;25.70;5.70;;;6.80;99.90;;;;;;4919009;29;20247;-74
2024/01/25 01:11:33;;;;;;;32.25;7.30;;;6.80;99.90;;;;;;4918056;29;20198;-75
2024/01/25 01:13:59;;;;;;;31.20;6.93;;;6.90;99.90;;;;;;4917829;29;20218;-75
2024/01/25 01:16:25;;;;;;;24.08;6.18;;;6.90;99.90;;;;;;4918250;29;20198;-74
2024/01/25 01:18:50;;;;;;;28.15;6.72;;;7.00;99.90;;;;;;4933088;29;20601;-74
2024/01/25 01:21:16;;;;;;;26.45;6.43;;;7.10;99.90;;;;;;4917495;29;20626;-74
2024/01/25 01:23:41;;;;;;;29.40;6.43;;;7.00;99.90;;;;;;4917305;29;20175;-73
2024/01/25 01:26:07;;;;;;;30.42;7.00;;;7.10;99.90;;;;;;4917412;29;20183;-73
2024/01/25 01:28:33;;;;;;;27.92;6.43;;;7.10;99.90;;;;;;4917341;29;20183;-73
2024/01/25 01:30:58;;;;;;;33.38;6.72;;;7.20;99.90;;;;;;4917274;29;20203;-74
2024/01/25 01:33:24;;;;;;;37.40;7.47;;;7.20;99.90;;;;;;4917811;29;20183;-74
2024/01/25 01:35:49;;;;;;;29.52;7.00;;;7.20;99.90;;;;;;4917280;29;20602;-74
2024/01/25 01:38:15;;;;;;;26.85;6.57;;;7.30;99.90;;;;;;4917440;29;20194;-75
2024/01/25 01:40:40;;;;;;;24.75;6.05;;;7.30;99.90;;;;;;4917726;29;20573;-74
2024/01/25 01:43:06;;;;;;;26.80;6.60;;;7.30;99.90;;;;;;4918671;29;20186;-74
2024/01/25 01:45:31;;;;;;;25.75;6.82;;;7.30;99.90;;;;;;4919128;29;20185;-74
2024/01/25 01:47:58;;;;;;;26.17;6.45;;;7.30;99.90;;;;;;4918925;29;20182;-74
2024/01/25 01:50:24;;;;;;;26.83;6.47;;;7.30;99.90;;;;;;4917581;29;20203;-74
2024/01/25 01:52:51;;;;;;;28.88;6.85;;;7.30;99.90;;;;;;4917140;29;20631;-74
2024/01/25 01:55:18;;;;;;;30.08;7.15;;;7.20;99.90;;;;;;4917923;29;20182;-74
2024/01/25 01:57:45;;;;;;;31.85;7.32;;;7.30;99.90;;;;;;4917082;29;20183;-74
2024/01/25 02:00:15;;;;;;;31.13;7.18;;;7.20;99.90;;;;;;4916827;29;20210;-74
2024/01/25 02:21:51;;;;;;;28.52;6.15;;;6.90;99.90;;;;;;4956152;29;20229;-75
2024/01/25 02:24:16;;;;;;;28.25;6.47;;;6.80;99.90;;;;;;4955560;28;20193;-76
2024/01/25 02:26:42;;;;;;;24.50;5.90;;;6.70;99.90;;;;;;4954409;28;20245;-76
2024/01/25 02:29:09;;;;;;;32.00;6.82;;;6.70;99.90;;;;;;4954837;29;20185;-76
2024/01/25 02:31:35;;;;;;;32.72;7.22;;;6.60;99.90;;;;;;4954511;29;20181;-76
2024/01/25 02:34:00;;;;;;;26.52;7.03;;;6.70;99.90;;;;;;4954651;29;20204;-76
2024/01/25 02:36:26;;;;;;;29.70;6.82;;;6.70;99.90;;;;;;4955059;28;20256;-75
2024/01/25 02:38:52;;;;;;;31.85;7.13;;;6.60;99.90;;;;;;4954422;29;20188;-75
2024/01/25 02:41:17;;;;;;;25.10;6.93;;;6.70;99.90;;;;;;4954363;29;20205;-75
2024/01/25 02:43:43;;;;;;;26.98;6.45;;;6.70;99.90;;;;;;4955670;28;20245;-75
2024/01/25 02:46:08;;;;;;;29.70;6.78;;;6.80;99.90;;;;;;4954263;28;20272;-75
2024/01/25 02:48:34;;;;;;;30.38;7.07;;;6.80;99.90;;;;;;4955083;29;20174;-75
2024/01/25 02:51:07;;;;;;;27.88;6.47;;;6.90;99.90;;;;;;4955962;28;20590;-75
2024/01/25 02:53:32;;;;;;;29.00;6.68;;;6.80;99.90;;;;;;4954378;29;20183;-75
2024/01/25 02:55:58;;;;;;;33.67;8.45;;;6.90;99.90;;;;;;4954145;28;20205;-75
2024/01/25 02:58:23;;;;;;;30.73;7.18;;;6.80;99.90;;;;;;4954174;29;20228;-75
2024/01/25 03:00:49;;;;;;;30.67;7.57;;;6.70;99.90;;;;;;4954839;29;20588;-75
2024/01/25 03:03:15;;;;;;;28.65;6.60;;;6.60;99.90;;;;;;4954484;29;20703;-75
2024/01/25 03:05:40;;;;;;;35.65;7.57;;;6.50;99.90;;;;;;4954076;28;20673;-75
2024/01/25 03:08:06;;;;;;;32.45;7.43;;;6.40;99.90;;;;;;4954005;29;20281;-75
2024/01/25 03:10:31;;;;;;;30.38;7.97;;;6.30;99.90;;;;;;4954007;29;20217;-75
2024/01/25 03:12:57;;;;;;;32.08;6.88;;;6.30;99.90;;;;;;4954435;29;20193;-75
2024/01/25 03:15:22;;;;;;;36.53;8.20;;;6.20;99.90;;;;;;4954594;28;20177;-75
2024/01/25 03:17:48;;;;;;;29.17;7.43;;;6.20;99.90;;;;;;4957778;28;20194;-75
2024/01/25 03:20:14;;;;;;;31.23;7.68;;;6.20;99.90;;;;;;4958970;28;20178;-75
2024/01/25 03:22:39;;;;;;;28.48;8.10;;;6.20;99.90;;;;;;4959367;28;20217;-75
2024/01/25 03:25:05;;;;;;;31.52;7.30;;;6.20;99.90;;;;;;4959630;28;20593;-75
2024/01/25 03:27:30;;;;;;;35.13;7.10;;;6.20;99.90;;;;;;4957578;28;20204;-75
2024/01/25 03:29:56;;;;;;;27.02;6.72;;;6.20;99.90;;;;;;4958190;29;20240;-75
2024/01/25 03:32:22;;;;;;;29.15;7.50;;;6.20;99.90;;;;;;4957928;29;20710;-75
2024/01/25 03:34:47;;;;;;;27.85;7.47;;;6.20;99.90;;;;;;4958746;29;20192;-75
2024/01/25 03:37:13;;;;;;;30.65;7.03;;;6.10;99.90;;;;;;4938624;29;20256;-75
2024/01/25 03:39:38;;;;;;;25.60;6.95;;;6.20;99.90;;;;;;4938287;29;20213;-74
2024/01/25 03:42:04;;;;;;;25.20;6.63;;;6.20;99.90;;;;;;4938225;29;20209;-74
2024/01/25 03:44:29;;;;;;;25.60;7.13;;;6.50;99.90;;;;;;4938062;29;20317;-74
2024/01/25 03:46:55;;;;;;;31.00;7.07;;;6.50;99.90;;;;;;4937865;29;20216;-74
2024/01/25 03:49:22;;;;;;;25.05;7.32;;;6.60;99.90;;;;;;4938257;29;20246;-74
2024/01/25 03:51:48;;;;;;;28.17;7.40;;;6.50;99.90;;;;;;4938158;29;20189;-75
2024/01/25 03:54:14;;;;;;;27.83;7.22;;;6.40;99.90;;;;;;4937828;29;20189;-75
2024/01/25 03:56:39;;;;;;;31.50;7.90;;;6.40;99.90;;;;;;4937714;29;20234;-74
2024/01/25 03:59:10;;;;;;;28.83;7.10;;;6.40;99.90;;;;;;4938053;29;20216;-74
2024/01/25 04:01:41;;;;;;;33.67;14.73;;;6.40;99.90;;;;;;4938255;29;20218;-74
2024/01/25 04:04:09;;;;;;;31.80;12.35;;;6.40;99.90;;;;;;4938364;29;20202;-74
2024/01/25 04:06:34;;;;;;;32.90;9.65;;;6.50;99.90;;;;;;4937877;29;20221;-74
2024/01/25 04:09:00;;;;;;;26.48;7.20;;;6.60;99.90;;;;;;4937913;29;20181;-74
2024/01/25 04:11:25;;;;;;;27.05;7.32;;;6.70;99.90;;;;;;4938610;29;20221;-74
2024/01/25 04:13:51;;;;;;;29.70;11.15;;;6.80;99.90;;;;;;4937491;29;20194;-74
2024/01/25 04:16:16;;;;;;;25.90;9.10;;;6.80;99.90;;;;;;4953384;28;20209;-74
2024/01/25 04:18:42;;;;;;;25.60;8.30;;;6.80;99.90;;;;;;4938467;29;20190;-74
2024/01/25 04:21:09;;;;;;;27.48;8.60;;;6.80;99.90;;;;;;4938504;29;20198;-74
2024/01/25 04:23:34;;;;;;;22.77;6.53;;;6.80;99.90;;;;;;4937229;29;20189;-74
2024/01/25 04:26:00;;;;;;;35.67;7.70;;;6.70;99.90;;;;;;4938982;29;20198;-74
2024/01/25 04:28:26;;;;;;;29.67;7.85;;;6.70;99.90;;;;;;4936204;29;20171;-74
2024/01/25 04:30:51;;;;;;;23.95;6.13;;;6.80;99.90;;;;;;4938047;29;20629;-74
2024/01/25 04:33:17;;;;;;;26.17;6.95;;;6.80;99.90;;;;;;4937343;29;20269;-74
2024/01/25 04:35:43;;;;;;;25.58;7.28;;;7.00;99.90;;;;;;4937943;29;20222;-75
2024/01/25 04:38:09;;;;;;;341.65;172.70;;;7.00;99.90;;;;;;4937421;29;20563;-75
2024/01/25 04:40:34;;;;;;;37.50;10.35;;;6.90;99.90;;;;;;4936988;29;20178;-75
2024/01/25 04:43:00;;;;;;;23.55;7.18;;;6.90;99.90;;;;;;4936971;29;20170;-74
2024/01/25 04:45:25;;;;;;;27.73;7.55;;;6.90;99.90;;;;;;4937262;29;20178;-75
2024/01/25 04:47:51;;;;;;;25.48;7.80;;;6.80;99.90;;;;;;4936864;29;20178;-75
2024/01/25 04:50:16;;;;;;;31.77;7.63;;;6.80;99.90;;;;;;4937101;29;20255;-75
2024/01/25 04:52:42;;;;;;;34.38;7.93;;;6.80;99.90;;;;;;4937160;29;20640;-75
2024/01/25 04:55:08;;;;;;;31.60;7.28;;;6.80;99.90;;;;;;4938543;29;20201;-74
2024/01/25 04:57:33;;;;;;;25.75;6.57;;;6.80;99.90;;;;;;4936521;29;20213;-74
2024/01/25 04:59:59;;;;;;;25.80;7.05;;;6.90;99.90;;;;;;4936731;29;20210;-74
2024/01/25 05:03:20;;;;;;;23.65;6.85;;;6.90;99.90;;;;;;4937202;29;20242;-74
2024/01/25 05:05:45;;;;;;;27.80;6.93;;;6.80;99.90;;;;;;4937624;29;20205;-74
2024/01/25 05:08:11;;;;;;;30.13;7.55;;;6.70;99.90;;;;;;4936496;29;20182;-74
2024/01/25 05:10:36;;;;;;;26.80;6.75;;;6.60;99.90;;;;;;4936582;29;20242;-74
2024/01/25 05:13:02;;;;;;;27.98;7.30;;;6.60;99.90;;;;;;4937199;29;20182;-74
2024/01/25 05:15:27;;;;;;;26.92;6.85;;;6.60;99.90;;;;;;4936600;29;20233;-74
2024/01/25 05:17:53;;;;;;;23.70;7.15;;;6.70;99.90;;;;;;4936638;29;20190;-74
2024/01/25 05:20:18;;;;;;;25.40;6.93;;;6.70;99.90;;;;;;4936371;29;20186;-74
2024/01/25 05:22:45;;;;;;;27.48;7.15;;;6.70;99.90;;;;;;4936077;29;20206;-74
2024/01/25 05:25:11;;;;;;;34.33;8.00;;;6.60;99.90;;;;;;4937438;29;20186;-74
2024/01/25 05:27:36;;;;;;;33.00;7.00;;;6.50;99.90;;;;;;4936416;29;20205;-75
2024/01/25 05:30:02;;;;;;;22.75;6.72;;;6.40;99.90;;;;;;4937337;29;20206;-75
2024/01/25 05:32:28;;;;;;;27.98;7.05;;;6.50;99.90;;;;;;4936558;29;20220;-74
2024/01/25 05:34:54;;;;;;;29.83;6.70;;;6.60;99.90;;;;;;4936400;29;20178;-74
2024/01/25 05:37:20;;;;;;;25.10;6.75;;;6.60;99.90;;;;;;4936675;29;20206;-74
2024/01/25 05:39:45;;;;;;;23.65;6.38;;;6.60;99.90;;;;;;4937059;29;20208;-75
2024/01/25 05:42:11;;;;;;;23.80;6.50;;;6.60;99.90;;;;;;4935794;29;20743;-74
2024/01/25 05:44:36;;;;;;;24.08;6.13;;;6.60;99.90;;;;;;4935800;29;20182;-74
2024/01/25 05:47:02;;;;;;;25.52;6.40;;;6.60;99.90;;;;;;4936926;29;20206;-75
2024/01/25 05:49:27;;;;;;;24.45;6.70;;;6.50;99.90;;;;;;4936573;29;20225;-75
2024/01/25 05:51:53;;;;;;;27.80;7.05;;;6.40;99.90;;;;;;4935651;29;20178;-75
2024/01/25 05:54:18;;;;;;;23.98;6.80;;;6.30;99.90;;;;;;4936726;29;20194;-74
2024/01/25 05:56:44;;;;;;;29.05;6.70;;;6.20;99.90;;;;;;4936886;29;20203;-74
2024/01/25 05:59:09;;;;;;;27.08;6.78;;;6.20;99.90;;;;;;4936714;29;20178;-74
2024/01/25 06:01:35;;;;;;;25.23;6.57;;;6.30;99.90;;;;;;4937211;29;20206;-74
2024/01/25 06:04:00;;;;;;;23.10;6.90;;;6.40;99.90;;;;;;4935928;29;20186;-74
2024/01/25 06:06:26;;;;;;;27.70;6.85;;;6.60;99.90;;;;;;4935551;29;20207;-74
2024/01/25 06:08:51;;;;;;;25.92;6.63;;;6.60;99.90;;;;;;4935821;29;20186;-74
2024/01/25 06:11:17;;;;;;;22.00;6.80;;;6.60;99.90;;;;;;4936035;29;20179;-74
2024/01/25 06:13:42;;;;;;;23.42;6.38;;;6.60;99.90;;;;;;4936191;29;20178;-75
2024/01/25 06:16:08;;;;;;;22.17;6.70;;;6.60;99.90;;;;;;4935948;29;20289;-75
2024/01/25 06:18:34;;;;;;;30.35;7.28;;;6.60;99.90;;;;;;4938210;29;20210;-75
2024/01/25 06:21:00;;;;;;;31.25;7.97;;;6.50;99.90;;;;;;4938410;29;20202;-75
2024/01/25 06:23:25;;;;;;;30.48;8.02;;;6.40;99.90;;;;;;4937462;29;20193;-75
2024/01/25 06:25:51;;;;;;;24.02;7.28;;;6.30;99.90;;;;;;4936657;29;20220;-76
2024/01/25 06:28:17;;;;;;;25.38;6.95;;;6.30;99.90;;;;;;4937874;29;20262;-76
2024/01/25 06:30:43;;;;;;;22.92;7.07;;;6.30;99.90;;;;;;4936948;29;20633;-78
2024/01/25 06:33:08;;;;;;;26.90;7.57;;;6.40;99.90;;;;;;4936248;29;20283;-77
2024/01/25 06:35:34;;;;;;;23.50;7.10;;;6.50;99.90;;;;;;4935503;29;20182;-73
2024/01/25 06:37:59;;;;;;;26.55;7.20;;;6.50;99.90;;;;;;4935337;29;20182;-74
2024/01/25 06:40:25;;;;;;;21.92;6.65;;;6.50;99.90;;;;;;4935268;29;20182;-74
2024/01/25 06:42:50;;;;;;;31.48;7.72;;;6.50;99.90;;;;;;4936171;29;20182;-74
2024/01/25 06:45:17;;;;;;;25.52;6.72;;;6.50;99.90;;;;;;4935041;29;20633;-74
2024/01/25 06:47:42;;;;;;;24.65;6.70;;;6.50;99.90;;;;;;4936125;29;20206;-74
2024/01/25 06:50:09;;;;;;;24.67;7.10;;;6.50;99.90;;;;;;4935944;29;20182;-74
2024/01/25 06:52:34;;;;;;;17.98;7.13;;;6.50;99.90;;;;;;4939292;29;20720;-74
2024/01/25 06:55:00;;;;;;;31.63;10.50;;;6.50;99.90;;;;;;4939954;29;20190;-74
2024/01/25 06:57:26;;;;;;;31.52;10.85;;;6.50;99.90;;;;;;4938767;29;20198;-74
2024/01/25 06:59:51;;;;;;;37.10;11.32;;;6.40;99.90;;;;;;4938846;29;20182;-74
2024/01/25 07:02:17;;;;;;;52.17;22.55;;;6.40;99.90;;;;;;4938669;29;20205;-74
2024/01/25 07:04:42;;;;;;;38.22;13.10;;;6.40;99.90;;;;;;4940024;29;20226;-74
2024/01/25 07:07:08;;;;;;;41.85;17.20;;;6.40;99.90;;;;;;4938896;29;20202;-74
2024/01/25 07:09:34;;;;;;;40.92;17.95;;;6.40;99.90;;;;;;4954958;28;20174;-74
2024/01/25 07:12:00;;;;;;;55.03;29.02;;;6.30;99.90;;;;;;4938671;29;20198;-74
2024/01/25 07:14:25;;;;;;;29.13;8.60;;;6.30;99.90;;;;;;4939737;29;20197;-75
2024/01/25 07:16:51;;;;;;;26.60;8.05;;;6.30;99.90;;;;;;4939443;29;20209;-75
2024/01/25 07:19:17;;;;;;;20.73;7.18;;;6.30;99.90;;;;;;4939359;29;20230;-75
2024/01/25 07:21:45;;;;;;;25.65;7.75;;;6.30;99.90;;;;;;4939834;29;20210;-75
2024/01/25 07:24:11;;;;;;;20.95;6.80;;;6.20;99.90;;;;;;4939001;29;20234;-75
2024/01/25 07:26:37;;;;;;;25.42;7.32;;;6.10;99.90;;;;;;4939066;29;20198;-75
2024/01/25 07:29:03;;;;;;;20.02;6.40;;;6.10;99.90;;;;;;4938820;29;20213;-75
2024/01/25 07:31:28;;;;;;;23.98;6.78;;;6.10;99.90;;;;;;4938673;29;20221;-76
2024/01/25 07:33:55;;;;;;;33.60;7.32;;;6.00;99.90;;;;;;4938979;29;20282;-76
2024/01/25 07:36:20;;;;;;;22.77;7.00;;;5.90;99.90;;;;;;4938412;29;20627;-75
2024/01/25 07:38:47;;;;;;;24.17;7.15;;;5.90;99.90;;;;;;4938517;29;20182;-75
2024/01/25 07:41:13;;;;;;;28.73;7.28;;;5.90;99.90;;;;;;4938248;29;20261;-75
2024/01/25 07:43:38;;;;;;;23.67;6.40;;;5.90;99.90;;;;;;4938603;29;20183;-75
2024/01/25 07:46:04;;;;;;;27.48;6.45;;;5.90;99.90;;;;;;4938088;29;20201;-75
2024/01/25 07:48:30;;;;;;;22.85;6.15;;;6.00;99.90;;;;;;4938205;29;20183;-75
2024/01/25 07:50:56;;;;;;;23.45;6.72;;;6.10;99.90;;;;;;4938110;29;20540;-75
2024/01/25 07:53:21;;;;;;;23.95;6.55;;;6.10;99.90;;;;;;4939211;29;20233;-75
2024/01/25 07:55:47;;;;;;;25.58;6.50;;;6.00;99.90;;;;;;4938065;29;20699;-76
2024/01/25 07:58:14;;;;;;;19.05;5.63;;;6.00;99.90;;;;;;4937968;29;20343;-74
2024/01/25 08:00:40;;;;;;;24.58;6.05;;;6.10;99.90;;;;;;4938088;29;20182;-75
2024/01/25 08:03:06;;;;;;;18.85;5.63;;;6.20;99.90;;;;;;4939243;29;20189;-75
2024/01/25 08:05:31;;;;;;;19.58;5.57;;;6.20;99.90;;;;;;4939425;29;20198;-75
2024/01/25 08:07:57;;;;;;;21.35;5.80;;;6.20;99.90;;;;;;4939060;29;20194;-75
2024/01/25 08:10:22;;;;;;;22.88;6.10;;;6.20;99.90;;;;;;4938722;29;20175;-76
2024/01/25 08:12:48;;;;;;;25.10;5.82;;;6.20;99.90;;;;;;4938403;29;20186;-76
2024/01/25 08:15:14;;;;;;;17.35;5.10;;;6.20;99.90;;;;;;4938001;29;20272;-75
2024/01/25 08:17:39;;;;;;;16.85;5.25;;;6.30;99.90;;;;;;4939348;29;20212;-75
2024/01/25 08:20:06;;;;;;;22.27;5.35;;;6.30;99.90;;;;;;4938544;29;20268;-75
2024/01/25 08:22:32;;;;;;;19.98;6.38;;;6.30;99.90;;;;;;4938610;29;20237;-75
2024/01/25 08:24:58;;;;;;;22.67;6.13;;;6.40;99.90;;;;;;4938859;29;20201;-75
2024/01/25 08:27:24;;;;;;;22.40;5.78;;;6.50;99.90;;;;;;4940225;29;20190;-75
2024/01/25 08:29:49;;;;;;;19.02;5.97;;;6.50;99.90;;;;;;4939230;29;20182;-75
2024/01/25 08:32:15;;;;;;;22.55;6.00;;;6.50;99.90;;;;;;4939672;29;20209;-75
2024/01/25 08:34:40;;;;;;;24.25;6.05;;;6.50;99.90;;;;;;4938664;29;20187;-75
2024/01/25 08:37:07;;;;;;;23.95;6.57;;;6.50;99.90;;;;;;4938769;29;20665;-75
2024/01/25 08:39:32;;;;;;;21.77;6.15;;;6.50;99.90;;;;;;4939227;29;20190;-75
2024/01/25 08:42:01;;;;;;;20.65;5.72;;;6.50;99.90;;;;;;4939210;29;20218;-75
2024/01/25 08:44:27;;;;;;;23.17;5.30;;;6.60;99.90;;;;;;4938813;29;20190;-75
2024/01/25 08:46:52;;;;;;;22.17;5.75;;;6.60;99.90;;;;;;4938009;29;20195;-76
2024/01/25 08:49:18;;;;;;;19.30;5.50;;;6.70;99.90;;;;;;4937980;29;20656;-76
2024/01/25 08:51:43;;;;;;;31.45;6.57;;;6.70;99.90;;;;;;4937957;29;20212;-75
2024/01/25 08:54:09;;;;;;;20.40;5.82;;;6.70;99.90;;;;;;4939544;29;20178;-75
2024/01/25 08:56:35;;;;;;;18.70;4.47;;;6.80;99.90;;;;;;4938167;29;20288;-75
2024/01/25 08:59:00;;;;;;;19.33;5.63;;;6.80;99.90;;;;;;4937838;29;20202;-75
2024/01/25 09:01:26;;;;;;;22.70;5.80;;;6.80;99.90;;;;;;4937656;29;20224;-75
2024/01/25 09:03:52;;;;;;;18.02;5.60;;;6.90;99.90;;;;;;4937200;29;20178;-75
2024/01/25 09:06:17;;;;;;;20.27;5.72;;;6.90;99.90;;;;;;4937809;29;20239;-75
2024/01/25 09:08:43;;;;;;;19.95;5.68;;;6.90;99.90;;;;;;4938783;29;20174;-75
2024/01/25 09:11:08;;;;;;;22.73;6.03;;;7.00;99.90;;;;;;4937627;29;20186;-75
2024/01/25 09:13:34;;;;;;;24.42;6.20;;;7.00;99.90;;;;;;4936932;29;20190;-75
2024/01/25 09:15:59;;;;;;;21.67;6.07;;;7.10;99.90;;;;;;4938340;29;20205;-75
2024/01/25 09:18:25;;;;;;;26.55;5.85;;;7.10;99.90;;;;;;4937815;29;20197;-75
2024/01/25 09:20:51;;;;;;;24.50;6.22;;;7.20;99.90;;;;;;4937737;29;20206;-75
2024/01/25 09:23:17;;;;;;;22.15;6.72;;;7.30;99.90;;;;;;4938082;29;20178;-75
2024/01/25 09:25:44;;;;;;;23.35;6.10;;;7.40;99.90;;;;;;4937864;29;20676;-75
2024/01/25 09:28:11;;;;;;;22.55;6.80;;;7.60;99.90;;;;;;4937723;29;20190;-75
2024/01/25 09:30:41;;;;;;;25.35;6.07;;;7.70;99.90;;;;;;4937789;29;20179;-75
2024/01/25 09:33:07;;;;;;;28.67;7.15;;;7.80;99.90;;;;;;4937630;29;20179;-75
2024/01/25 09:35:32;;;;;;;22.92;6.15;;;7.90;99.90;;;;;;4937269;29;20186;-75
2024/01/25 09:37:58;;;;;;;18.98;5.22;;;8.00;99.90;;;;;;4938052;29;20246;-75
2024/01/25 09:40:23;;;;;;;18.00;4.95;;;8.00;99.90;;;;;;4937419;29;20186;-75
2024/01/25 09:42:52;;;;;;;19.92;5.43;;;8.10;99.90;;;;;;4937205;29;20654;-75
2024/01/25 09:45:18;;;;;;;15.30;5.22;;;8.10;99.90;;;;;;4938155;29;20269;-75
2024/01/25 09:47:48;;;;;;;19.13;5.43;;;8.20;99.90;;;;;;4938069;29;20281;-76
2024/01/25 09:50:14;;;;;;;17.02;5.13;;;8.40;99.90;;;;;;4937765;29;20178;-75
2024/01/25 09:52:43;;;;;;;21.88;5.60;;;8.50;99.90;;;;;;4937727;29;20206;-76
2024/01/25 09:55:13;;;;;;;17.15;4.88;;;8.50;99.90;;;;;;4938854;29;20190;-76
2024/01/25 09:57:44;;;;;;;18.30;5.45;;;8.70;99.90;;;;;;4938497;29;20205;-76
2024/01/25 10:00:11;;;;;;;20.83;4.88;;;8.80;99.90;;;;;;4939924;29;20249;-76
2024/01/25 10:02:37;;;;;;;20.10;6.07;;;8.90;99.90;;;;;;4939263;29;20216;-76
2024/01/25 10:05:03;;;;;;;17.05;5.28;;;8.90;99.90;;;;;;4939773;29;20175;-76
2024/01/25 10:07:43;;;;;;;17.23;4.40;;;8.70;99.90;;;;;;4937151;29;20198;-74
2024/01/25 10:10:11;;;;;;;18.30;5.18;;;8.60;99.90;;;;;;4938498;29;20222;-75
2024/01/25 10:12:41;;;;;;;14.70;4.20;;;8.60;99.90;;;;;;4937766;29;20304;-75
2024/01/25 10:15:07;;;;;;;17.08;4.93;;;8.50;99.90;;;;;;4938637;29;20173;-75
2024/01/25 10:17:33;;;;;;;15.52;4.80;;;8.40;99.90;;;;;;4938231;29;20201;-76
2024/01/25 10:19:59;;;;;;;19.77;5.10;;;8.30;99.90;;;;;;4937842;29;20178;-75
2024/01/25 10:22:25;;;;;;;22.27;5.57;;;8.30;99.90;;;;;;4937588;29;20230;-75
2024/01/25 10:24:50;;;;;;;18.15;5.47;;;8.30;99.90;;;;;;4937563;29;20553;-75
2024/01/25 10:27:17;;;;;;;24.15;5.72;;;8.20;99.90;;;;;;4936754;29;20209;-75
2024/01/25 10:29:43;;;;;;;17.50;5.22;;;8.20;99.90;;;;;;4938926;29;20204;-75
2024/01/25 10:32:09;;;;;;;23.00;4.88;;;8.20;99.90;;;;;;4941016;29;20170;-75
2024/01/25 10:34:36;;;;;;;17.30;5.13;;;8.20;99.90;;;;;;4943400;29;20265;-75
2024/01/25 10:37:06;;;;;;;16.60;4.53;;;8.30;99.90;;;;;;4944965;29;20262;-76
2024/01/25 10:39:32;;;;;;;20.83;5.10;;;8.30;99.90;;;;;;4946358;29;20177;-75
2024/01/25 10:41:59;;;;;;;13.63;4.30;;;8.30;99.90;;;;;;4944734;29;20217;-75
2024/01/25 10:44:25;;;;;;;19.67;5.20;;;8.30;99.90;;;;;;4945025;29;20182;-75
2024/01/25 10:46:51;;;;;;;20.63;5.03;;;8.40;99.90;;;;;;4944404;29;20210;-75
2024/01/25 10:49:18;;;;;;;13.75;4.43;;;8.40;99.90;;;;;;4943962;29;20187;-76
2024/01/25 10:51:44;;;;;;;18.33;4.82;;;8.50;99.90;;;;;;4942439;29;20182;-75
2024/01/25 10:54:14;;;;;;;19.17;4.28;;;8.50;99.90;;;;;;4943269;29;20589;-75
2024/01/25 10:56:46;;;;;;;20.77;4.75;;;8.60;99.90;;;;;;4942237;29;20680;-75
2024/01/25 10:59:11;;;;;;;15.80;4.40;;;8.60;99.90;;;;;;4940178;29;20186;-75
2024/01/25 11:01:37;;;;;;;21.90;4.90;;;8.60;99.90;;;;;;4939611;29;20236;-75
2024/01/25 11:04:11;;;;;;;21.35;4.38;;;8.50;99.90;;;;;;4937954;29;20174;-75
2024/01/25 11:06:37;;;;;;;16.80;4.40;;;8.60;99.90;;;;;;4938015;29;20201;-76
2024/01/25 11:09:06;;;;;;;20.85;4.57;;;8.60;99.90;;;;;;4937159;29;20185;-76
2024/01/25 11:11:32;;;;;;;20.92;5.38;;;8.60;99.90;;;;;;4936847;29;20190;-76
2024/01/25 11:13:59;;;;;;;18.00;5.00;;;8.50;99.90;;;;;;4937814;29;20189;-76
2024/01/25 11:16:31;;;;;;;23.23;4.75;;;8.40;99.90;;;;;;4937594;29;20300;-76
2024/01/25 11:19:04;;;;;;;19.60;4.78;;;8.40;99.90;;;;;;4937738;29;20175;-75
2024/01/25 11:21:49;;;;;;;17.85;4.60;;;8.40;99.90;;;;;;4936739;29;20209;-76
2024/01/25 11:24:23;;;;;;;15.35;5.03;;;8.40;99.90;;;;;;4937447;29;20630;-76
2024/01/25 11:26:49;;;;;;;15.13;4.47;;;8.50;99.90;;;;;;4938154;29;20194;-75
2024/01/25 11:29:22;;;;;;;18.90;4.47;;;8.60;99.90;;;;;;4937714;29;20192;-76
2024/01/25 11:31:49;;;;;;;16.58;4.53;;;8.70;99.90;;;;;;4937436;29;20182;-76
2024/01/25 11:34:16;;;;;;;16.90;5.30;;;8.80;99.90;;;;;;4937405;29;20182;-76
2024/01/25 11:36:45;;;;;;;16.10;4.05;;;8.70;99.90;;;;;;4938339;29;20202;-76
2024/01/25 11:39:11;;;;;;;21.75;5.20;;;8.70;99.90;;;;;;4942214;29;20175;-75
2024/01/25 11:41:37;;;;;;;15.82;4.60;;;8.70;99.90;;;;;;4941237;29;20238;-76
2024/01/25 11:44:03;;;;;;;23.67;4.53;;;8.70;99.90;;;;;;4941410;29;20185;-76
2024/01/25 11:46:30;;;;;;;18.42;4.75;;;8.80;99.90;;;;;;4940442;29;20202;-75
2024/01/25 11:48:56;;;;;;;17.77;4.53;;;8.80;99.90;;;;;;4941700;29;20178;-76
2024/01/25 11:51:22;;;;;;;14.73;4.63;;;8.80;99.90;;;;;;4941754;29;20329;-76
2024/01/25 11:53:47;;;;;;;14.50;4.47;;;8.90;99.90;;;;;;4941774;29;20264;-76
2024/01/25 11:56:19;;;;;;;14.75;4.15;;;8.80;99.90;;;;;;4941497;29;20209;-76
2024/01/25 11:58:45;;;;;;;21.55;5.30;;;8.80;99.90;;;;;;4940218;29;20167;-76
2024/01/25 12:01:12;;;;;;;16.55;4.78;;;8.80;99.90;;;;;;4939181;29;20206;-76
2024/01/25 12:03:38;;;;;;;30.67;15.98;;;8.90;99.90;;;;;;4939402;29;20178;-76
2024/01/25 12:06:05;;;;;;;30.65;12.27;;;8.80;99.90;;;;;;4939184;29;20201;-76
2024/01/25 12:08:33;;;;;;;20.30;5.47;;;8.80;99.90;;;;;;4940017;29;20246;-76
2024/01/25 12:11:04;;;;;;;39.97;17.73;;;8.80;99.90;;;;;;4939544;29;20185;-76
2024/01/25 12:13:35;;;;;;;28.15;9.57;;;8.80;99.90;;;;;;4940792;29;20206;-76
2024/01/25 12:16:03;;;;;;;21.05;5.30;;;8.80;99.90;;;;;;4939404;29;20217;-75
2024/01/25 12:18:29;;;;;;;23.42;8.13;;;8.70;99.90;;;;;;4941131;29;20182;-75
2024/01/25 12:20:57;;;;;;;18.75;6.03;;;8.70;99.90;;;;;;4939682;29;20245;-75
2024/01/25 12:23:23;;;;;;;17.33;6.10;;;8.60;99.90;;;;;;4940861;29;20174;-75
2024/01/25 12:25:48;;;;;;;17.77;7.22;;;8.60;99.90;;;;;;4940605;29;20260;-75
2024/01/25 12:28:14;;;;;;;21.65;5.78;;;8.70;99.90;;;;;;4941041;29;20689;-75
2024/01/25 12:30:40;;;;;;;19.20;5.90;;;8.80;99.90;;;;;;4939850;29;20205;-75
2024/01/25 12:33:05;;;;;;;26.05;13.07;;;8.90;99.90;;;;;;4940051;29;20564;-76
2024/01/25 12:35:31;;;;;;;25.23;10.32;;;8.90;99.90;;;;;;4941902;29;20638;-76
2024/01/25 12:37:56;;;;;;;20.73;7.32;;;8.90;99.90;;;;;;4939555;29;20186;-76
2024/01/25 12:40:22;;;;;;;21.25;5.07;;;9.00;99.90;;;;;;4939984;29;20226;-76
2024/01/25 12:42:47;;;;;;;19.15;6.35;;;8.90;99.90;;;;;;4939923;29;20248;-76
2024/01/25 12:45:13;;;;;;;21.23;7.03;;;9.00;99.90;;;;;;4938979;29;20188;-77
2024/01/25 12:47:39;;;;;;;16.63;5.25;;;9.00;99.90;;;;;;4939098;29;20198;-76
2024/01/25 12:50:05;;;;;;;17.77;4.68;;;9.00;99.90;;;;;;4938647;29;20210;-76
2024/01/25 12:52:31;;;;;;;20.23;5.20;;;9.00;99.90;;;;;;4940037;29;20300;-76
2024/01/25 12:54:56;;;;;;;24.52;6.13;;;9.00;99.90;;;;;;4939255;29;20201;-76
2024/01/25 12:57:22;;;;;;;19.42;4.85;;;9.00;99.90;;;;;;4938584;29;20300;-76
2024/01/25 12:59:49;;;;;;;19.25;4.60;;;9.00;99.90;;;;;;4938968;29;20178;-80